Flight Track Log - Related Links

Times and Time Zones

All times are in EDT time to prevent confusion due to time zone crossing. See the AWE2333 flight status page for this flight to view local times or setup timezone preferences in your user account.

Time Position Orientation Groundspeed Altitude Reporting Facility
EDT Latitude Longitude Course Direction KTS MPH feet Rate Location/Type
Sat 07:48:21 PM 32.8833 -97.0333 79° East 168 193 1,300  Level Dallas / Fort Worth TRACON
Sat 07:49:33 PM 32.8167 -97.0000 157° South 222 255 3,200 1,768 Climbing Dallas / Fort Worth TRACON
Sat 07:50:13 PM 32.7767 -96.9861 164° South 253 291 4,600 2,436 Climbing Fort Worth Center
Sat 07:51:00 PM 32.8632 -96.5644 62° Northeast  Level FlightAware Approximate
Sat 07:51:14 PM 32.7642 -96.8972 99° East 282 325 7,300  Level Fort Worth Center
Sat 07:52:00 PM 32.9209 -96.4311 64° Northeast  Level FlightAware Approximate
Sat 07:52:16 PM 32.7858 -96.8042 74° East 295 339 9,900  Level Fort Worth Center
Sat 07:53:00 PM 32.9705 -96.2937 79° East  Level FlightAware Approximate
Sat 07:53:18 PM 32.8181 -96.7006 70° East 319 367 11,700  Level Fort Worth Center
Sat 07:54:19 PM 32.8514 -96.5903 70° East 354 407 14,100 2,439 Climbing Fort Worth Center
Sat 07:55:21 PM 32.8769 -96.4647 76° East 371 427 16,700 2,177 Climbing Fort Worth Center
Sat 07:56:23 PM 32.8775 -96.3408 90° East 377 434 18,600 1,935 Climbing Fort Worth Center
Sat 07:57:25 PM 32.8783 -96.2006 90° East 391 450 20,700 1,561 Climbing Fort Worth Center
Sat 07:58:26 PM 32.8792 -96.0647 90° East 409 471 21,800 1,220 Climbing Fort Worth Center
Sat 07:59:28 PM 32.8797 -95.9192 90° East 439 505 23,200 1,403 Climbing Fort Worth Center
Sat 08:00:30 PM 32.8844 -95.7661 88° East 443 510 24,700 1,355 Climbing Fort Worth Center
Sat 08:01:32 PM 32.9522 -95.6367 58° Northeast 458 527 26,000 1,220 Climbing Fort Worth Center
Sat 08:02:33 PM 33.0075 -95.4981 65° Northeast 461 531 27,200 1,122 Climbing Fort Worth Center
Sat 08:03:35 PM 33.0675 -95.3442 65° Northeast 472 543 28,300 1,161 Climbing Fort Worth Center
Sat 08:04:37 PM 33.1236 -95.2014 65° Northeast 472 543 29,600 1,355 Climbing Fort Worth Center
Sat 08:05:39 PM 33.1775 -95.0639 65° Northeast 467 537 31,100 1,171 Climbing Fort Worth Center
Sat 08:06:40 PM 33.2311 -94.9267 65° Northeast 459 528 32,000 780 Climbing Fort Worth Center
Sat 08:07:42 PM 33.2847 -94.7889 65° Northeast 459 528 32,700 484 Climbing Fort Worth Center
Sat 08:08:44 PM 33.3389 -94.6492 65° Northeast 461 531 33,000 145 Climbing Fort Worth Center
Sat 08:09:46 PM 33.3928 -94.5092 65° Northeast 461 531 33,000  Level Fort Worth Center
Sat 08:10:47 PM 33.4578 -94.3408 65° Northeast 462 532 33,000  Level Fort Worth Center
Sat 08:11:49 PM 33.5117 -94.2008 65° Northeast 461 531 33,000  Level Fort Worth Center
Sat 08:12:51 PM 33.5661 -94.0592 65° Northeast 462 532 33,000  Level Fort Worth Center
Sat 08:13:53 PM 33.6194 -93.9169 66° East 462 532 33,000  Level Fort Worth Center
Sat 08:14:54 PM 33.6719 -93.7744 66° East 462 532 33,000  Level Fort Worth Center
Sat 08:15:56 PM 33.7244 -93.6336 66° East 461 531 33,000  Level Fort Worth Center
Sat 08:16:58 PM 33.7767 -93.4925 66° East 461 531 33,000  Level Fort Worth Center
Sat 08:17:59 PM 33.8289 -93.3517 66° East 461 531 33,000  Level Fort Worth Center
Sat 08:19:01 PM 33.8814 -93.2114 66° East 461 531 33,000  Level Fort Worth Center
Sat 08:19:35 PM 33.9114 -93.1272 67° East 461 531 33,000  Level Memphis Center
Sat 08:20:36 PM 33.9628 -92.9864 66° East 461 531 33,000  Level Memphis Center
Sat 08:21:37 PM 34.0147 -92.8464 66° East 460 529 33,000  Level Memphis Center
Sat 08:22:38 PM 34.0664 -92.7053 66° East 460 529 33,000  Level Memphis Center
Sat 08:23:40 PM 34.1181 -92.5617 66° East 460 529 33,000  Level Memphis Center
Sat 08:24:41 PM 34.1797 -92.3933 66° East 460 529 33,000  Level Memphis Center
Sat 08:25:42 PM 34.2303 -92.2500 67° East 462 532 33,000  Level Memphis Center
Sat 08:26:43 PM 34.2814 -92.1086 66° East 461 531 33,000  Level Memphis Center
Sat 08:27:44 PM 34.3322 -91.9658 67° East 462 532 33,000  Level Memphis Center
Sat 08:28:45 PM 34.3808 -91.8217 68° East 462 532 33,000  Level Memphis Center
Sat 08:29:46 PM 34.4019 -91.6506 81° East 470 541 33,000  Level Memphis Center
Sat 08:30:47 PM 34.4186 -91.4958 83° East 469 540 33,000  Level Memphis Center
Sat 08:31:49 PM 34.4319 -91.3392 84° East 468 539 33,000  Level Memphis Center
Sat 08:32:50 PM 34.4517 -91.1836 81° East 468 539 33,000  Level Memphis Center
Sat 08:33:51 PM 34.5192 -91.0503 58° Northeast 466 536 33,000  Level Memphis Center
Sat 08:34:52 PM 34.5900 -90.9189 57° Northeast 466 536 33,000  Level Memphis Center
Sat 08:35:53 PM 34.6608 -90.7867 57° Northeast 466 536 33,000  Level Memphis Center
Sat 08:36:54 PM 34.7328 -90.6547 56° Northeast 466 536 33,000  Level Memphis Center
Sat 08:37:55 PM 34.8069 -90.5250 55° Northeast 466 536 33,000  Level Memphis Center
Sat 08:38:57 PM 34.8811 -90.3958 55° Northeast 466 536 33,000  Level Memphis Center
Sat 08:39:58 PM 34.9533 -90.2658 56° Northeast 466 536 33,000  Level Memphis Center
Sat 08:40:59 PM 35.0278 -90.1347 55° Northeast 466 536 33,000  Level Memphis Center
Sat 08:42:00 PM 35.1222 -89.9806 53° Northeast 466 536 33,000  Level Memphis Center
Sat 08:43:01 PM 35.2008 -89.8519 53° Northeast 466 536 33,000  Level Memphis Center
Sat 08:44:02 PM 35.2853 -89.7283 50° Northeast 467 537 33,000  Level Memphis Center
Sat 08:45:04 PM 35.3692 -89.6056 50° Northeast 468 539 33,000  Level Memphis Center
Sat 08:46:05 PM 35.4575 -89.4900 47° Northeast 468 539 33,000  Level Memphis Center
Sat 08:47:06 PM 35.5433 -89.3672 49° Northeast 468 539 33,000  Level Memphis Center
Sat 08:48:07 PM 35.6322 -89.2489 47° Northeast 469 540 33,000  Level Memphis Center
Sat 08:49:08 PM 35.7158 -89.1217 51° Northeast 470 541 33,000  Level Memphis Center
Sat 08:50:10 PM 35.7958 -88.9925 53° Northeast 474 545 33,000  Level Memphis Center
Sat 08:51:11 PM 35.8786 -88.8681 51° Northeast 474 545 33,000  Level Memphis Center
Sat 08:52:12 PM 35.9592 -88.7386 52° Northeast 474 545 33,000  Level Memphis Center
Sat 08:53:13 PM 36.0419 -88.6136 51° Northeast 474 545 33,000  Level Memphis Center
Sat 08:54:15 PM 36.1389 -88.4564 53° Northeast 478 550 33,000  Level Memphis Center
Sat 08:55:16 PM 36.2186 -88.3239 53° Northeast 481 554 33,000 246 Level Memphis Center
Sat 08:56:17 PM 36.2981 -88.1958 52° Northeast 475 547 33,500 639 Climbing Memphis Center
Sat 08:57:18 PM 36.3742 -88.0603 55° Northeast 476 548 34,300 683 Climbing Memphis Center
Sat 08:58:20 PM 36.4533 -87.9261 54° Northeast 475 547 34,900 341 Climbing Memphis Center
Sat 08:59:21 PM 36.5325 -87.7914 54° Northeast 475 547 35,000 49 Climbing Memphis Center
Sat 09:00:22 PM 36.6139 -87.6578 53° Northeast 476 548 35,000  Level Memphis Center
Sat 09:01:23 PM 36.6919 -87.5239 54° Northeast 475 547 35,000  Level Memphis Center
Sat 09:02:25 PM 36.7717 -87.3881 54° Northeast 475 547 35,000  Level Memphis Center
Sat 09:03:26 PM 36.8475 -87.2469 56° Northeast 478 550 35,000  Level Memphis Center
Sat 09:04:27 PM 36.9275 -87.1097 54° Northeast 480 552 35,000  Level Memphis Center
Sat 09:05:28 PM 36.9808 -86.9544 67° East 486 559 35,000  Level Memphis Center
Sat 09:06:30 PM 37.0075 -86.7861 79° East 486 559 35,000  Level Memphis Center
Sat 09:07:31 PM 37.0333 -86.6181 79° East 486 559 35,000  Level Memphis Center
Sat 09:08:32 PM 37.0608 -86.4489 78° East 486 559 35,000  Level Memphis Center
Sat 09:09:08 PM 37.0789 -86.3361 79° East 488 562 35,000  Level Indianapolis Center
Sat 09:10:09 PM 37.1053 -86.1711 79° East 485 558 35,000  Level Indianapolis Center
Sat 09:11:10 PM 37.1311 -86.0064 79° East 480 552 35,000  Level Indianapolis Center
Sat 09:12:11 PM 37.1578 -85.8397 79° East 479 551 35,000  Level Indianapolis Center
Sat 09:13:12 PM 37.1825 -85.6719 79° East 482 555 35,000  Level Indianapolis Center
Sat 09:14:13 PM 37.2094 -85.4972 79° East 482 555 35,000  Level Indianapolis Center
Sat 09:15:14 PM 37.2336 -85.3300 80° East 486 559 35,000  Level Indianapolis Center
Sat 09:16:15 PM 37.2603 -85.1622 79° East 486 559 35,000  Level Indianapolis Center
Sat 09:17:17 PM 37.2833 -84.9944 80° East 487 560 35,000  Level Indianapolis Center
Sat 09:18:18 PM 37.3083 -84.8244 79° East 488 562 35,000  Level Indianapolis Center
Sat 09:19:19 PM 37.3319 -84.6581 80° East 488 562 35,000  Level Indianapolis Center
Sat 09:20:20 PM 37.3556 -84.4917 80° East 487 560 35,000  Level Indianapolis Center
Sat 09:21:21 PM 37.3786 -84.3233 80° East 487 560 35,000  Level Indianapolis Center
Sat 09:22:22 PM 37.4036 -84.1542 79° East 488 562 35,000  Level Indianapolis Center
Sat 09:23:23 PM 37.4294 -83.9600 80° East 488 562 35,000  Level Indianapolis Center
Sat 09:24:25 PM 37.4531 -83.7906 80° East 488 562 35,000  Level Indianapolis Center
Sat 09:25:26 PM 37.4747 -83.6236 81° East 486 559 35,000  Level Indianapolis Center
Sat 09:26:27 PM 37.4981 -83.4517 80° East 491 565 35,000  Level Indianapolis Center
Sat 09:27:28 PM 37.5203 -83.2814 81° East 492 566 35,000  Level Indianapolis Center
Sat 09:28:29 PM 37.5425 -83.1106 81° East 492 566 35,000  Level Indianapolis Center
Sat 09:29:30 PM 37.5647 -82.9392 81° East 492 566 35,000  Level Indianapolis Center
Sat 09:30:31 PM 37.5864 -82.7661 81° East 492 566 35,000  Level Indianapolis Center
Sat 09:31:32 PM 37.6072 -82.5964 81° East 492 566 35,000  Level Indianapolis Center
Sat 09:32:34 PM 37.6292 -82.4264 81° East 492 566 35,000  Level Indianapolis Center
Sat 09:33:35 PM 37.6492 -82.2564 81° East 491 565 35,000  Level Indianapolis Center
Sat 09:34:36 PM 37.6697 -82.0836 81° East 491 565 35,000  Level Indianapolis Center
Sat 09:35:37 PM 37.6897 -81.9128 82° East 491 565 35,000 -246 Level Indianapolis Center
Sat 09:36:38 PM 37.7094 -81.7408 82° East 491 565 34,500 -836 Descending Indianapolis Center
Sat 09:37:39 PM 37.7331 -81.5431 81° East 491 565 33,300 -984 Descending Indianapolis Center
Sat 09:38:40 PM 37.7494 -81.4064 81° East 488 562 32,500 -984 Descending Indianapolis Center
Sat 09:39:41 PM 37.7722 -81.2022 82° East 488 562 31,300 -732 Descending Indianapolis Center
Sat 09:40:43 PM 37.7881 -81.0331 83° East 488 562 31,000 -146 Descending Indianapolis Center
Sat 09:41:44 PM 37.7983 -80.8628 86° East 487 560 31,000  Level Indianapolis Center
Sat 09:42:45 PM 37.8092 -80.6925 85° East 487 560 31,000  Level Indianapolis Center
Sat 09:43:46 PM 37.8200 -80.5286 85° East 488 562 31,000  Level Indianapolis Center
Sat 09:44:47 PM 37.8306 -80.3478 86° East 489 563 31,000 -344 Level Indianapolis Center
Sat 09:45:48 PM 37.8417 -80.1744 85° East 490 564 30,300 -836 Descending Indianapolis Center
Sat 09:46:49 PM 37.8519 -80.0014 86° East 490 564 29,300 -1,024 Descending Indianapolis Center
Sat 09:47:51 PM 37.8639 -79.8058 86° East 491 565 28,200 -976 Descending Indianapolis Center
Sat 09:48:52 PM 37.8728 -79.6547 86° East 491 565 27,300 -639 Descending Indianapolis Center
Sat 09:49:53 PM 37.8797 -79.4867 87° East 481 554 26,900 -762 Descending Indianapolis Center
Sat 09:50:58 PM 37.8367 -79.2942 106° East 470 541 25,700 -1,000 Descending Washington Center
Sat 09:51:59 PM 37.8042 -79.1322 104° East 470 541 24,800 -756 Descending Washington Center
Sat 09:52:57 PM 37.7747 -78.9914 105° East 470 541 24,200 -712 Descending Washington Center
Sat 09:53:57 PM 37.7417 -78.8325 105° East 464 534 23,400 -900 Descending Washington Center
Sat 09:54:57 PM 37.7103 -78.6789 104° East 464 534 22,400 -950 Descending Washington Center
Sat 09:55:57 PM 37.6786 -78.5281 105° East 459 528 21,500 -683 Descending Washington Center
Sat 09:57:00 PM 37.6486 -78.3800 104° East 448 516 21,000 -250 Descending Washington Center
Sat 09:57:57 PM 37.6186 -78.2347 105° East 441 507 21,000  Level Washington Center
Sat 09:58:56 PM 37.5819 -78.0892 108° East 436 502 21,000 -50 Level Washington Center
Sat 09:59:58 PM 37.5539 -77.9417 103° East 436 502 20,900 -1,033 Descending Washington Center
Sat 10:00:58 PM 37.5253 -77.7967 104° East 436 502 18,900 -1,966 Descending Washington Center
Sat 10:01:57 PM 37.5172 -77.6578 94° East 414 476 17,000 -2,186 Descending Washington Center
Sat 10:02:56 PM 37.5072 -77.5081 95° East 398 458 14,600 -1,475 Descending Washington Center
Sat 10:03:59 PM 37.4967 -77.3769 96° East 385 443 14,000 -493 Descending Washington Center
Sat 10:04:09 PM 37.4950 -77.3561 96° East 374 430 14,000  Level Washington Center
Sat 10:05:10 PM 37.4864 -77.2275 95° East 370 426 14,000  Level Washington Center
Sat 10:05:58 PM 37.4792 -77.1306 95° East 375 432 14,000  Level Washington Center
Sat 10:06:11 PM 37.4775 -77.0967 94° East 379 436 14,000  Level Washington Center
Sat 10:06:58 PM 37.4686 -76.9892 96° East 369 425 14,000  Level Washington Center
Sat 10:07:10 PM 37.4667 -76.9578 94° East 373 429 14,000 -295 Level Washington Center
Sat 10:07:59 PM 37.4511 -76.8711 103° East 369 425 13,700 -787 Descending Washington Center
Sat 10:08:11 PM 37.4325 -76.8419 129° Southeast 371 427 13,200 -1,100 Descending Washington Center
Sat 10:08:59 PM 37.3789 -76.7889 142° Southeast 344 396 12,600 -885 Descending Washington Center
Sat 10:09:12 PM 37.3539 -76.7728 153° Southeast 328 377 12,300 -1,448 Descending Washington Center
Sat 10:09:57 PM 37.3044 -76.7275 144° Southeast 324 373 11,200 -1,900 Descending Washington Center
Sat 10:10:12 PM 37.2836 -76.7142 153° Southeast 305 351 10,400 -2,095 Descending Washington Center
Sat 10:11:00 PM 37.2339 -76.6719 146° Southeast 319 367 9,000 -1,900 Descending Washington Center
Sat 10:11:12 PM 37.2133 -76.6611 157° South 294 338 8,500 -1,552 Descending Washington Center
Sat 10:11:58 PM 37.1675 -76.6239 147° Southeast 294 338 7,500 -1,475 Descending Washington Center
Sat 10:12:13 PM 37.1406 -76.6081 155° Southeast 282 325 7,000 -1,475 Descending Washington Center
Sat 10:12:59 PM 37.1014 -76.5761 147° Southeast 283 326 6,000 -1,475 Descending Washington Center
Sat 10:13:14 PM 37.0742 -76.5628 159° South 271 312 5,500 -1,579 Descending Washington Center
Sat 10:14:15 PM 37.0100 -76.5128 148° Southeast 265 305 4,000 -1,220 Descending Washington Center
Sat 10:15:17 PM 36.9583 -76.4547 138° Southeast 237 273 3,000 -1,000 Descending Washington Center
Sat 10:16:15 PM 36.9128 -76.4050 139° Southeast 221 254 2,000 -480 Descending Washington Center
Sat 10:17:22 PM 36.8650 -76.3553 140° Southeast 201 231 2,000  Level Washington Center
Sat 10:18:24 PM 36.8319 -76.3108 133° Southeast 149 171 2,000 -375 Level Washington Center
Sat 10:19:30 PM 36.8428 -76.2564 76° East 142 163 1,200 -750 Descending Washington Center
Sat 10:20:32 PM 36.8742 -76.2253 38° Northeast 147 169 400 -774 Descending Washington Center

Login

Don't have an account? Register now (free) for customized features, flight alerts, and more!